createdAt,value
2022-11-14T00:01:06.457Z,68.6084
2022-11-14T00:04:29.624Z,67.93848
2022-11-14T00:06:22.019Z,67.97656
2022-11-14T00:08:22.144Z,67.88672
2022-11-14T00:10:22.022Z,67.6377
2022-11-14T00:12:22.023Z,68.13184
2022-11-14T00:14:22.121Z,67.59961
2022-11-14T00:16:22.029Z,67.77344
2022-11-14T00:19:37.767Z,67.64258
2022-11-14T00:21:37.750Z,67.83203
2022-11-14T00:23:37.829Z,67.57324
2022-11-14T00:25:37.712Z,67.36133
2022-11-14T00:27:37.715Z,67.2373
2022-11-14T00:29:37.829Z,67.03223
2022-11-14T00:31:37.760Z,67.34766
2022-11-14T00:34:49.139Z,68.2998
2022-11-14T00:36:49.144Z,67.91504
2022-11-14T00:38:49.211Z,67.82813
2022-11-14T00:40:49.064Z,67.89355
2022-11-14T00:42:49.147Z,67.78613
2022-11-14T00:44:49.237Z,67.72852
2022-11-14T00:46:49.087Z,67.76563
2022-11-14T00:50:09.562Z,67.89941
2022-11-14T00:52:09.555Z,67.74316
2022-11-14T00:54:09.664Z,68.125
2022-11-14T00:56:09.730Z,68.62402
2022-11-14T00:58:09.752Z,68.50879
2022-11-14T01:00:09.722Z,69.25684
2022-11-14T01:02:09.677Z,68.59863
2022-11-14T01:04:45.660Z,68.64355
2022-11-14T01:06:45.581Z,68.50781
2022-11-14T01:08:45.613Z,68.4707
2022-11-14T01:10:45.664Z,68.74219
2022-11-14T01:12:45.558Z,68.52246
2022-11-14T01:14:45.560Z,68.19238
2022-11-14T01:16:45.662Z,68.34668
2022-11-14T01:20:25.958Z,68.67383
2022-11-14T01:22:25.929Z,69.08105
2022-11-14T01:24:25.923Z,68.8457
2022-11-14T01:26:26.070Z,68.57324
2022-11-14T01:28:26.028Z,68.28809
2022-11-14T01:30:25.951Z,68.17676
2022-11-14T01:32:26.096Z,67.95117
2022-11-14T01:34:47.109Z,68.22363
2022-11-14T01:36:47.163Z,68.56738
2022-11-14T01:38:47.119Z,68.36133
2022-11-14T01:40:47.106Z,68.26172
2022-11-14T01:42:47.239Z,68.55957
2022-11-14T01:44:47.111Z,68.43652
2022-11-14T01:46:47.142Z,68.45215
2022-11-14T01:48:47.348Z,68.70605
2022-11-14T01:50:21.991Z,68.62988
2022-11-14T01:52:22.027Z,68.65527
2022-11-14T01:54:21.817Z,68.65137
2022-11-14T01:56:21.814Z,68.77344
2022-11-14T01:58:21.921Z,68.78711
2022-11-14T02:00:21.800Z,70.21191
2022-11-14T02:02:21.822Z,69.77734
2022-11-14T02:06:05.395Z,68.99902
2022-11-14T02:08:05.294Z,69.1416
2022-11-14T02:10:05.292Z,68.89551
2022-11-14T02:12:05.274Z,69.24902
2022-11-14T02:14:05.415Z,68.71289
2022-11-14T02:16:05.325Z,68.79785
2022-11-14T02:18:05.464Z,68.58594
2022-11-14T02:20:51.491Z,68.29297
2022-11-14T02:22:51.760Z,68.44727
2022-11-14T02:24:51.565Z,68.5293
2022-11-14T02:26:51.681Z,68.34863
2022-11-14T02:28:51.469Z,68.43652
2022-11-14T02:30:51.570Z,68.0625
2022-11-14T02:33:16.799Z,68.52539
2022-11-14T02:36:28.456Z,68.67285
2022-11-14T02:38:29.423Z,68.80566
2022-11-14T02:40:28.501Z,68.65039
2022-11-14T02:42:28.472Z,68.43066
2022-11-14T02:44:28.447Z,68.61523
2022-11-14T02:46:28.582Z,68.43066
2022-11-14T02:48:29.172Z,69.08691
2022-11-14T02:50:51.684Z,69.50098
2022-11-14T02:52:51.620Z,69.31445
2022-11-14T02:54:54.931Z,68.91211
2022-11-14T02:56:51.732Z,69.18066
2022-11-14T02:58:51.691Z,70.125
2022-11-14T03:01:20.062Z,69.81641
2022-11-14T03:02:51.813Z,69.42188
2022-11-14T03:06:07.254Z,68.6875
2022-11-14T03:08:07.181Z,68.89648
2022-11-14T03:10:07.310Z,68.44922
2022-11-14T03:12:07.501Z,68.50293
2022-11-14T03:14:07.296Z,68.36133
2022-11-14T03:16:07.174Z,67.89258
2022-11-14T03:18:07.287Z,67.92285
2022-11-14T03:21:04.176Z,67.80371
2022-11-14T03:23:04.150Z,68.38281
2022-11-14T03:25:04.133Z,68.00977
2022-11-14T03:27:04.234Z,68.23633
2022-11-14T03:29:04.177Z,68.17773
2022-11-14T03:31:04.138Z,68.5127
2022-11-14T03:33:04.143Z,68.62695
2022-11-14T03:35:04.226Z,68.52148
2022-11-14T03:36:58.084Z,68.67676
2022-11-14T03:38:58.100Z,68.72168
2022-11-14T03:40:58.055Z,68.63477
2022-11-14T03:42:58.164Z,68.6084
2022-11-14T03:44:58.102Z,68.32813
2022-11-14T03:46:58.039Z,68.39941
2022-11-14T03:48:58.040Z,68.26563
2022-11-14T03:51:20.605Z,68.18555
2022-11-14T03:53:20.480Z,67.93164
2022-11-14T03:55:20.692Z,68.04199
2022-11-14T03:57:20.468Z,68.67383
2022-11-14T03:59:20.595Z,68.74414
2022-11-14T04:01:20.611Z,68.72754
2022-11-14T04:03:20.625Z,68.7168
2022-11-14T04:05:20.748Z,68.93262
2022-11-14T04:07:26.130Z,68.38477
2022-11-14T04:09:25.754Z,68.66895
2022-11-14T04:11:25.760Z,68.65234
2022-11-14T04:13:25.775Z,68.52734
2022-11-14T04:15:25.869Z,68.1084
2022-11-14T04:17:25.792Z,68.54199
2022-11-14T04:19:25.798Z,68.73242
2022-11-14T04:21:51.805Z,68.22559
2022-11-14T04:23:51.899Z,68.58008
2022-11-14T04:25:51.977Z,68.39746
2022-11-14T04:27:51.853Z,68.04102
2022-11-14T04:29:52.191Z,68.46582
2022-11-14T04:31:51.985Z,69.21387
2022-11-14T04:33:51.894Z,69.81445
2022-11-14T04:37:02.229Z,70.75684
2022-11-14T04:39:02.449Z,70.63086
2022-11-14T04:41:02.278Z,70.58008
2022-11-14T04:43:02.215Z,70.03418
2022-11-14T04:45:02.682Z,69.82129
2022-11-14T04:47:02.359Z,69.52637
2022-11-14T04:49:02.228Z,69.19629
2022-11-14T04:52:41.584Z,69.42773
2022-11-14T04:54:41.698Z,69.38281
2022-11-14T04:56:41.556Z,69.06641
2022-11-14T04:58:41.549Z,68.97754
2022-11-14T05:00:41.956Z,69.02734
2022-11-14T05:02:41.642Z,69.02637
2022-11-14T05:04:41.545Z,69.00879
2022-11-14T05:07:42.031Z,68.84375
2022-11-14T05:09:41.971Z,68.68555
2022-11-14T05:11:41.996Z,68.80859
2022-11-14T05:13:41.979Z,69.89648
2022-11-14T05:15:41.984Z,70.31836
2022-11-14T05:17:42.471Z,70.86719
2022-11-14T05:19:42.223Z,70.46973
2022-11-14T05:22:58.391Z,69.51563
2022-11-14T05:24:58.352Z,69.58496
2022-11-14T05:26:58.366Z,69.78418
2022-11-14T05:28:58.331Z,69.75
2022-11-14T05:30:58.551Z,70.16895
2022-11-14T05:32:58.290Z,69.7334
2022-11-14T05:34:58.420Z,70.1748
2022-11-14T05:38:00.163Z,71.66797
2022-11-14T05:39:53.487Z,72.19043
2022-11-14T05:41:53.427Z,72.13281
2022-11-14T05:43:53.452Z,72.01367
2022-11-14T05:45:53.409Z,72.01953
2022-11-14T05:47:53.403Z,71.90039
2022-11-14T05:49:53.441Z,71.48828
2022-11-14T05:53:26.438Z,71.36426
2022-11-14T05:55:26.442Z,71.63379
2022-11-14T05:57:26.395Z,71.98926
2022-11-14T05:59:26.425Z,71.71777
2022-11-14T06:01:26.448Z,71.80762
2022-11-14T06:03:26.434Z,72.32129
2022-11-14T06:05:26.407Z,72.96875
2022-11-14T06:08:03.770Z,72.62109
2022-11-14T06:10:03.762Z,72.5752
2022-11-14T06:12:03.727Z,72.91797
2022-11-14T06:14:11.189Z,73.20996
2022-11-14T06:16:03.986Z,73.3125
2022-11-14T06:18:03.915Z,73.18457
2022-11-14T06:20:03.758Z,72.29688
2022-11-14T06:23:53.509Z,71.0498
2022-11-14T06:25:53.544Z,70.94043
2022-11-14T06:27:53.666Z,71.66504
2022-11-14T06:29:53.594Z,71.30371
2022-11-14T06:31:53.512Z,71.05762
2022-11-14T06:33:53.435Z,70.9082
2022-11-14T06:35:53.447Z,71.07227
2022-11-14T06:38:32.815Z,71.7998
2022-11-14T06:40:32.131Z,72.47852
2022-11-14T06:42:32.216Z,72.86523
2022-11-14T06:44:32.147Z,72.34766
2022-11-14T06:46:32.078Z,72.39648
2022-11-14T06:48:32.713Z,73.75488
2022-11-14T06:50:32.124Z,73.8877
2022-11-14T06:54:04.014Z,73.82227
2022-11-14T06:56:03.991Z,73.7832
2022-11-14T06:58:04.093Z,73.74121
2022-11-14T07:00:03.999Z,73.77148
2022-11-14T07:02:04.059Z,73.68262
2022-11-14T07:04:03.924Z,74.10742
2022-11-14T07:06:03.941Z,74.21191
2022-11-14T07:09:24.957Z,74.71973
2022-11-14T07:11:24.964Z,75.52246
2022-11-14T07:13:24.949Z,75.17676
2022-11-14T07:15:24.983Z,75.54883
2022-11-14T07:17:31.482Z,75.38477
2022-11-14T07:19:25.020Z,76.02148
2022-11-14T07:21:25.040Z,76.31543
2022-11-14T07:23:45.793Z,76.1582
2022-11-14T07:25:45.617Z,75.66699
2022-11-14T07:27:45.710Z,76.58398
2022-11-14T07:29:45.740Z,76.74316
2022-11-14T07:31:45.544Z,76.15234
2022-11-14T07:33:45.666Z,75.3584
2022-11-14T07:35:45.683Z,74.6123
2022-11-14T07:39:42.412Z,76.24902
2022-11-14T07:41:42.371Z,76.61621
2022-11-14T07:43:42.509Z,76.93457
2022-11-14T07:45:42.324Z,76.47949
2022-11-14T07:47:42.423Z,76.57129
2022-11-14T07:49:42.392Z,76.99414
2022-11-14T07:51:42.375Z,77.43164
2022-11-14T07:53:57.583Z,76.73633
2022-11-14T07:55:57.621Z,77.09375
2022-11-14T07:57:57.573Z,76.74121
2022-11-14T07:59:57.691Z,75.05273
2022-11-14T08:01:57.517Z,75.37109
2022-11-14T08:03:57.475Z,75.2959
2022-11-14T08:05:57.579Z,75.22754
2022-11-14T08:07:57.483Z,75.27344
2022-11-14T08:09:42.728Z,75.43164
2022-11-14T08:11:42.678Z,75.38965
2022-11-14T08:13:42.748Z,75.1377
2022-11-14T08:15:42.809Z,74.84277
2022-11-14T08:17:42.715Z,74.23145
2022-11-14T08:19:42.850Z,75.48242
2022-11-14T08:21:42.671Z,76.32715
2022-11-14T08:24:56.074Z,75.56055
2022-11-14T08:26:56.141Z,75.69629
2022-11-14T08:28:55.991Z,75.12402
2022-11-14T08:30:56.107Z,74.88574
2022-11-14T08:32:55.947Z,75.80957
2022-11-14T08:34:56.157Z,77.02832
2022-11-14T08:36:55.998Z,75.66504
2022-11-14T08:39:32.326Z,75.4043
2022-11-14T08:41:32.643Z,76.07813
2022-11-14T08:43:32.706Z,76.24316
2022-11-14T08:45:32.322Z,77.71094
2022-11-14T08:47:32.459Z,77.02441
2022-11-14T08:49:32.390Z,75.42969
2022-11-14T08:51:32.280Z,75.56152
2022-11-14T08:55:12.196Z,75.28906
2022-11-14T08:57:12.346Z,74.85156
2022-11-14T08:59:12.316Z,74.83105
2022-11-14T09:01:12.213Z,75.19336
2022-11-14T09:03:12.249Z,73.68945
2022-11-14T09:05:12.276Z,74.27246
2022-11-14T09:07:12.628Z,73.21582
2022-11-14T09:09:46.705Z,75.03809
2022-11-14T09:11:46.706Z,74.0957
2022-11-14T09:13:46.687Z,74.30176
2022-11-14T09:15:46.661Z,74.45801
2022-11-14T09:17:46.644Z,74.16211
2022-11-14T09:19:46.664Z,74.79883
2022-11-14T09:21:46.655Z,73.33594
2022-11-14T09:23:46.687Z,72.47168
2022-11-14T09:25:38.081Z,72.65137
2022-11-14T09:27:37.966Z,71.02051
2022-11-14T09:29:38.245Z,71.27148
2022-11-14T09:31:37.952Z,73.74219
2022-11-14T09:33:38.047Z,73.41699
2022-11-14T09:35:38.090Z,73.89551
2022-11-14T09:37:38.004Z,74.48633
2022-11-14T09:40:50.825Z,74.64355
2022-11-14T09:42:50.685Z,75.04492
2022-11-14T09:44:50.788Z,76.05957
2022-11-14T09:46:50.869Z,75.65918
2022-11-14T09:48:50.948Z,74.64258
2022-11-14T09:50:50.610Z,73.33789
2022-11-14T09:52:50.622Z,73.31055
2022-11-14T09:55:37.660Z,72.95801
2022-11-14T09:57:33.687Z,73.01563
2022-11-14T09:59:33.764Z,72.89453
2022-11-14T10:01:34.029Z,73.49805
2022-11-14T10:03:33.849Z,74.26758
2022-11-14T10:05:33.872Z,73.33496
2022-11-14T10:07:33.865Z,73.81348
2022-11-14T10:11:02.317Z,72.92188
2022-11-14T10:13:02.318Z,73.01953
2022-11-14T10:15:02.349Z,70.88281
2022-11-14T10:17:10.477Z,71.875
2022-11-14T10:19:02.303Z,70.72559
2022-11-14T10:21:02.331Z,70.13281
2022-11-14T10:23:02.279Z,69.13965
2022-11-14T10:25:49.413Z,69.41406
2022-11-14T10:27:58.589Z,69.03223
2022-11-14T10:29:49.427Z,68.96582
2022-11-14T10:31:49.409Z,68.47363
2022-11-14T10:33:49.428Z,67.09961
2022-11-14T10:35:49.427Z,67.43457
2022-11-14T10:37:49.397Z,67.67578
2022-11-14T10:42:08.541Z,66.47949
2022-11-14T10:43:29.270Z,65.95508
2022-11-14T10:45:29.176Z,65.62012
2022-11-14T10:47:29.212Z,65.49707
2022-11-14T10:49:29.232Z,65.03027
2022-11-14T10:51:29.146Z,64.30762
2022-11-14T10:53:29.339Z,65.56738
2022-11-14T10:56:24.356Z,64.95313
2022-11-14T10:58:24.377Z,64.69824
2022-11-14T11:00:24.425Z,63.51758
2022-11-14T11:02:24.372Z,62.71387
2022-11-14T11:04:24.527Z,62.9873
2022-11-14T11:08:43.002Z,62.04688
2022-11-14T11:11:53.060Z,62.00684
2022-11-14T11:13:55.882Z,61.83105
2022-11-14T11:15:53.142Z,61.19629
2022-11-14T11:17:53.041Z,60.66699
2022-11-14T11:19:53.066Z,60.17773
2022-11-14T11:21:53.341Z,60.20508
2022-11-14T11:23:53.241Z,59.40332
2022-11-14T11:26:39.038Z,59.62012
2022-11-14T11:28:39.107Z,59.14746
2022-11-14T11:30:39.002Z,58.28613
2022-11-14T11:32:39.033Z,58.38672
2022-11-14T11:34:38.911Z,57.9668
2022-11-14T11:36:38.909Z,58.25781
2022-11-14T11:38:38.894Z,57.24023
2022-11-14T11:42:16.504Z,56.68359
2022-11-14T11:44:17.024Z,56.17383
2022-11-14T11:46:16.846Z,55.83594
2022-11-14T11:48:16.505Z,55.34082
2022-11-14T11:50:16.477Z,55.75098
2022-11-14T11:52:16.500Z,54.75977
2022-11-14T11:54:16.489Z,54.24609
2022-11-14T11:57:05.290Z,54.92188
2022-11-14T11:59:05.300Z,54.21875
2022-11-14T12:01:05.325Z,54.08105
2022-11-14T12:03:05.707Z,53.31641
2022-11-14T12:05:05.318Z,52.35156
2022-11-14T12:07:05.334Z,53.08594
2022-11-14T12:09:05.288Z,52.25488
2022-11-14T12:12:12.824Z,51.47754
2022-11-14T12:14:12.205Z,50.91992
2022-11-14T12:16:13.606Z,51.72949
2022-11-14T12:18:12.212Z,51.02246
2022-11-14T12:20:12.201Z,52.05371
2022-11-14T12:22:12.236Z,51.86914
2022-11-14T12:24:12.179Z,50.24316
2022-11-14T12:27:01.464Z,50.81836
2022-11-14T12:29:01.463Z,50.3877
2022-11-14T12:31:01.509Z,51.85645
2022-11-14T12:33:01.490Z,51.19531
2022-11-14T12:35:01.549Z,50.3877
2022-11-14T12:37:01.599Z,50.26855
2022-11-14T12:39:01.498Z,50.9375
2022-11-14T12:42:22.566Z,49.91895
2022-11-14T12:44:22.583Z,50.11328
2022-11-14T12:46:22.599Z,50.52832
2022-11-14T12:48:22.495Z,49.67773
2022-11-14T12:50:22.489Z,50.44141
2022-11-14T12:52:22.656Z,48.9248
2022-11-14T12:54:22.496Z,49.53125
2022-11-14T12:57:43.278Z,49.88867
2022-11-14T12:59:43.275Z,49.90039
2022-11-14T13:01:43.396Z,49.63086
2022-11-14T13:03:43.232Z,49.68945
2022-11-14T13:05:43.281Z,48.92773
2022-11-14T13:07:43.420Z,49.39844
2022-11-14T13:09:43.283Z,49.2627
2022-11-14T13:13:05.913Z,49.77832
2022-11-14T13:15:05.856Z,49.42871
2022-11-14T13:17:05.823Z,49.18652
2022-11-14T13:19:05.794Z,49.65039
2022-11-14T13:21:05.816Z,49.74805
2022-11-14T13:23:05.864Z,49.92773
2022-11-14T13:25:05.831Z,49.75781
2022-11-14T13:28:25.038Z,50.16406
2022-11-14T13:30:12.594Z,50.2666
2022-11-14T13:32:12.645Z,50.25391
2022-11-14T13:34:12.577Z,50.33984
2022-11-14T13:36:12.553Z,50.48926
2022-11-14T13:38:12.700Z,50.68164
2022-11-14T13:40:12.577Z,50.81836
2022-11-14T13:43:37.377Z,51.25586
2022-11-14T13:45:37.506Z,51.37207
2022-11-14T13:47:37.455Z,51.54004
2022-11-14T13:49:37.386Z,51.7373
2022-11-14T13:51:44.359Z,51.68555
2022-11-14T13:53:37.564Z,51.8291
2022-11-14T13:55:37.681Z,51.96387
2022-11-14T13:58:11.445Z,52.13574
2022-11-14T14:00:20.291Z,52.19727
2022-11-14T14:02:11.199Z,52.49219
2022-11-14T14:04:11.195Z,52.91406
2022-11-14T14:06:11.148Z,53.2959
2022-11-14T14:08:11.410Z,53.52051
2022-11-14T14:10:11.303Z,53.67871
2022-11-14T14:13:23.294Z,53.79395
2022-11-14T14:15:23.314Z,54.01172
2022-11-14T14:17:23.697Z,53.99023
2022-11-14T14:19:26.465Z,54.31348
2022-11-14T14:21:23.239Z,54.52734
2022-11-14T14:23:23.353Z,54.78906
2022-11-14T14:25:24.194Z,55.09277
2022-11-14T14:28:43.260Z,55.44336
2022-11-14T14:30:43.093Z,55.60059
2022-11-14T14:32:43.133Z,55.54004
2022-11-14T14:34:43.162Z,55.53027
2022-11-14T14:36:43.179Z,55.5791
2022-11-14T14:38:43.287Z,55.59473
2022-11-14T14:40:43.549Z,55.63672
2022-11-14T14:44:16.041Z,56.13574
2022-11-14T14:46:16.102Z,56.57031
2022-11-14T14:48:16.040Z,56.95898
2022-11-14T14:50:16.004Z,57.34668
2022-11-14T14:52:15.993Z,57.4834
2022-11-14T14:54:15.993Z,57.75781
2022-11-14T14:56:16.206Z,57.63086
2022-11-14T14:59:04.349Z,58.02246
2022-11-14T15:01:04.596Z,58.40234
2022-11-14T15:03:04.527Z,58.41895
2022-11-14T15:05:04.396Z,58.2002
2022-11-14T15:07:04.690Z,58.33105
2022-11-14T15:09:04.371Z,58.0332
2022-11-14T15:11:04.420Z,58.01855
2022-11-14T15:13:53.679Z,58.24805
2022-11-14T15:15:53.677Z,58.12305
2022-11-14T15:17:53.603Z,58.14063
2022-11-14T15:19:53.711Z,58.59766
2022-11-14T15:21:53.550Z,58.77344
2022-11-14T15:23:53.686Z,58.3418
2022-11-14T15:25:53.674Z,58.6875
2022-11-14T15:29:34.374Z,59.19531
2022-11-14T15:31:34.289Z,58.67773
2022-11-14T15:33:34.301Z,58.83496
2022-11-14T15:35:34.366Z,59.13379
2022-11-14T15:37:34.285Z,59.36035
2022-11-14T15:39:34.472Z,59.43848
2022-11-14T15:41:34.489Z,59.72656
2022-11-14T15:44:44.672Z,60.11133
2022-11-14T15:46:44.621Z,59.65625
2022-11-14T15:48:44.546Z,59.42676
2022-11-14T15:50:44.636Z,59.83789
2022-11-14T15:52:44.561Z,59.95703
2022-11-14T15:54:44.604Z,59.89063
2022-11-14T15:56:44.634Z,59.85352
2022-11-14T15:59:14.053Z,60.49414
2022-11-14T16:01:14.201Z,60.61133
2022-11-14T16:03:14.033Z,60.61133
2022-11-14T16:05:14.048Z,60.53809
2022-11-14T16:07:14.259Z,60.62109
2022-11-14T16:09:13.991Z,60.97461
2022-11-14T16:11:14.110Z,60.88965
2022-11-14T16:13:13.981Z,61.31934
2022-11-14T16:14:27.511Z,61.19434
2022-11-14T16:16:27.635Z,61.08691
2022-11-14T16:18:27.514Z,60.9668
2022-11-14T16:20:27.469Z,60.90234
2022-11-14T16:22:27.495Z,61.29102
2022-11-14T16:24:34.295Z,61.25488
2022-11-14T16:26:27.504Z,61.39551
2022-11-14T16:29:40.036Z,61.72461
2022-11-14T16:31:40.015Z,61.52539
2022-11-14T16:33:39.978Z,61.65527
2022-11-14T16:35:40.022Z,61.63867
2022-11-14T16:37:40.036Z,61.64551
2022-11-14T16:39:39.954Z,61.94336
2022-11-14T16:41:40.021Z,62.27148
2022-11-14T16:45:10.227Z,61.84961
2022-11-14T16:47:10.065Z,62.0957
2022-11-14T16:49:10.033Z,61.88086
2022-11-14T16:51:46.503Z,62.15723
2022-11-14T16:53:10.289Z,62.17773
2022-11-14T16:55:10.073Z,62.26172
2022-11-14T16:57:10.077Z,61.71191
2022-11-14T17:00:01.897Z,61.70801
2022-11-14T17:02:01.888Z,61.89648
2022-11-14T17:04:01.791Z,61.78027
2022-11-14T17:06:01.758Z,62.13965
2022-11-14T17:08:01.738Z,62.04199
2022-11-14T17:10:01.802Z,62.28809
2022-11-14T17:12:01.783Z,62.30371
2022-11-14T17:15:44.438Z,61.37012
2022-11-14T17:17:44.380Z,60.97363
2022-11-14T17:19:44.423Z,60.99121
2022-11-14T17:21:44.384Z,60.95117
2022-11-14T17:23:44.415Z,60.79102
2022-11-14T17:25:44.454Z,61.05469
2022-11-14T17:27:44.388Z,61.31836
2022-11-14T17:30:58.980Z,61.71191
2022-11-14T17:32:58.913Z,61.43359
2022-11-14T17:34:58.865Z,62.04883
2022-11-14T17:36:58.797Z,62.19727
2022-11-14T17:38:58.938Z,61.77441
2022-11-14T17:40:58.775Z,61.58008
2022-11-14T17:42:58.911Z,61.81445
2022-11-14T17:45:50.728Z,62.12305
2022-11-14T17:47:50.733Z,62.28906
2022-11-14T17:49:50.793Z,62.33105
2022-11-14T17:51:50.771Z,62.9502
2022-11-14T17:53:50.684Z,62.98145
2022-11-14T17:55:50.830Z,63.25
2022-11-14T17:57:50.716Z,62.75293
2022-11-14T18:00:37.829Z,63.26953
2022-11-14T18:02:37.828Z,63.20898
2022-11-14T18:04:37.828Z,63.6416
2022-11-14T18:06:37.777Z,63.77539
2022-11-14T18:08:37.887Z,63.50684
2022-11-14T18:10:37.762Z,63.30664
2022-11-14T18:12:37.902Z,63.36328
2022-11-14T18:15:43.935Z,63.91699
2022-11-14T18:17:43.836Z,64.32324
2022-11-14T18:19:43.860Z,64.45898
2022-11-14T18:21:47.928Z,64.69727
2022-11-14T18:23:43.842Z,64.86816
2022-11-14T18:25:43.837Z,65.11719
2022-11-14T18:27:43.847Z,65.10352
2022-11-14T18:29:44.134Z,64.76758
2022-11-14T18:30:55.365Z,64.17969
2022-11-14T18:32:48.357Z,64.43652
2022-11-14T18:34:48.416Z,64.51855
2022-11-14T18:36:48.288Z,64.62695
2022-11-14T18:38:48.747Z,64.52637
2022-11-14T18:40:57.033Z,64.92871
2022-11-14T18:42:48.335Z,64.85742
2022-11-14T18:44:48.386Z,64.52832
2022-11-14T18:46:49.995Z,64.25781
2022-11-14T18:48:50.074Z,64.02637
2022-11-14T18:50:49.984Z,64.28516
2022-11-14T18:52:50.122Z,64.41602
2022-11-14T18:54:50.063Z,64.7334
2022-11-14T18:56:50.018Z,64.37988
2022-11-14T18:58:50.141Z,64.61816
2022-11-14T19:01:49.067Z,64.69141
2022-11-14T19:03:48.930Z,64.47168
2022-11-14T19:05:48.952Z,64.57227
2022-11-14T19:07:48.965Z,64.88867
2022-11-14T19:09:48.946Z,65.32422
2022-11-14T19:11:48.949Z,65.94434
2022-11-14T19:13:48.972Z,65.84766
2022-11-14T19:17:07.543Z,66.69141
2022-11-14T19:19:07.566Z,66.58594
2022-11-14T19:21:07.902Z,65.93457
2022-11-14T19:23:07.532Z,65.34082
2022-11-14T19:25:07.696Z,65.01074
2022-11-14T19:27:07.526Z,65.30078
2022-11-14T19:29:07.574Z,65.26758
2022-11-14T19:32:06.197Z,65.33691
2022-11-14T19:34:06.258Z,66.12988
2022-11-14T19:36:06.247Z,66.03613
2022-11-14T19:38:06.213Z,66.72656
2022-11-14T19:40:06.279Z,66.47168
2022-11-14T19:42:06.224Z,67.56641
2022-11-14T19:44:06.254Z,67.01074
2022-11-14T19:47:05.473Z,66.83594
2022-11-14T19:49:05.685Z,66.00977
2022-11-14T19:51:05.665Z,65.91504
2022-11-14T19:53:05.575Z,66.37012
2022-11-14T19:55:05.457Z,66.77344
2022-11-14T19:57:05.480Z,66.32129
2022-11-14T19:59:13.923Z,66.13184
2022-11-14T20:02:31.990Z,66.2793
2022-11-14T20:04:38.134Z,66.3457
2022-11-14T20:06:31.925Z,65.9375
2022-11-14T20:08:31.966Z,66.46777
2022-11-14T20:10:31.984Z,66.27539
2022-11-14T20:12:32.007Z,66.54004
2022-11-14T20:14:31.911Z,66.5166
2022-11-14T20:17:41.698Z,66.6875
2022-11-14T20:19:41.683Z,66.74707
2022-11-14T20:21:41.643Z,66.50586
2022-11-14T20:23:41.660Z,66.58594
2022-11-14T20:25:41.743Z,66.80957
2022-11-14T20:27:41.660Z,67.06641
2022-11-14T20:29:41.712Z,67.06836
2022-11-14T20:32:16.277Z,66.88574
2022-11-14T20:34:16.150Z,66.89355
2022-11-14T20:36:16.112Z,66.86523
2022-11-14T20:38:16.103Z,67.19629
2022-11-14T20:40:16.151Z,67.33398
2022-11-14T20:42:16.238Z,67.83691
2022-11-14T20:44:16.166Z,67.76953
2022-11-14T20:47:46.559Z,67.4873
2022-11-14T20:49:46.563Z,68.10059
2022-11-14T20:51:46.481Z,67.78027
2022-11-14T20:53:46.591Z,67.22852
2022-11-14T20:55:46.561Z,67.25098
2022-11-14T20:57:46.529Z,67.4668
2022-11-14T20:59:46.550Z,67.35449
2022-11-14T21:02:53.391Z,67.84863
2022-11-14T21:04:53.443Z,67.7207
2022-11-14T21:06:53.536Z,67.59961
2022-11-14T21:08:53.378Z,68.05078
2022-11-14T21:10:53.405Z,67.66797
2022-11-14T21:12:53.348Z,67.75
2022-11-14T21:14:53.400Z,67.56543
2022-11-14T21:17:53.345Z,67.51855
2022-11-14T21:19:53.347Z,67.39355
2022-11-14T21:21:53.431Z,68.04395
2022-11-14T21:23:53.209Z,68.31348
2022-11-14T21:25:53.144Z,68.12012
2022-11-14T21:27:53.201Z,68.5625
2022-11-14T21:29:53.531Z,68.33008
2022-11-14T21:32:43.570Z,67.56152
2022-11-14T21:34:43.525Z,67.54004
2022-11-14T21:36:47.006Z,67.12012
2022-11-14T21:38:43.571Z,67.2041
2022-11-14T21:40:43.521Z,67.12012
2022-11-14T21:42:43.504Z,66.83887
2022-11-14T21:44:43.528Z,67.20996
2022-11-14T21:46:43.513Z,67.25
2022-11-14T21:48:01.437Z,67.5127
2022-11-14T21:50:01.830Z,67.55176
2022-11-14T21:52:01.389Z,67.45898
2022-11-14T21:54:01.442Z,67.50293
2022-11-14T21:56:01.389Z,67.54492
2022-11-14T21:58:01.414Z,67.96484
2022-11-14T22:00:01.380Z,67.94727
2022-11-14T22:03:49.442Z,67.76563
2022-11-14T22:05:49.374Z,67.43262
2022-11-14T22:07:49.431Z,67.07617
2022-11-14T22:09:49.384Z,67.45996
2022-11-14T22:11:49.378Z,67.56738
2022-11-14T22:13:49.354Z,67.77734
2022-11-14T22:15:49.366Z,67.83789
2022-11-14T22:18:35.153Z,67.48828
2022-11-14T22:20:35.129Z,67.59863
2022-11-14T22:22:35.102Z,67.75293
2022-11-14T22:24:35.165Z,67.77637
2022-11-14T22:26:35.129Z,67.56836
2022-11-14T22:28:35.120Z,68.05957
2022-11-14T22:30:35.092Z,68.1123
2022-11-14T22:33:32.423Z,68.17773
2022-11-14T22:35:31.626Z,68.16016
2022-11-14T22:37:31.541Z,68.89746
2022-11-14T22:39:31.580Z,68.02539
2022-11-14T22:41:33.696Z,67.79102
2022-11-14T22:43:32.222Z,68.78809
2022-11-14T22:45:31.510Z,69.03418
2022-11-14T22:47:31.501Z,68.23828
2022-11-14T22:49:04.747Z,67.88965
2022-11-14T22:51:04.720Z,68.00879
2022-11-14T22:53:04.728Z,68.39453
2022-11-14T22:55:04.746Z,67.92871
2022-11-14T22:57:04.687Z,67.96289
2022-11-14T22:59:04.766Z,68.08398
2022-11-14T23:01:04.732Z,67.8125
2022-11-14T23:03:48.707Z,67.72949
2022-11-14T23:05:48.386Z,68.11133
2022-11-14T23:07:48.358Z,67.88867
2022-11-14T23:09:48.486Z,67.77148
2022-11-14T23:11:48.405Z,67.89551
2022-11-14T23:13:48.391Z,67.44141
2022-11-14T23:15:48.385Z,67.79199
2022-11-14T23:17:48.385Z,67.92773
2022-11-14T23:19:33.729Z,67.7168
2022-11-14T23:21:33.176Z,67.88867
2022-11-14T23:23:33.845Z,68.28418
2022-11-14T23:25:33.228Z,67.91113
2022-11-14T23:27:33.180Z,68.11035
2022-11-14T23:29:33.212Z,68.0918
2022-11-14T23:31:33.178Z,67.99902
2022-11-14T23:34:13.192Z,67.84473
2022-11-14T23:36:13.194Z,67.95508
2022-11-14T23:38:13.207Z,68.4209
2022-11-14T23:40:13.159Z,68.17383
2022-11-14T23:42:13.273Z,68.16211
2022-11-14T23:44:13.173Z,68.25781
2022-11-14T23:46:13.187Z,68.45215
2022-11-14T23:48:13.187Z,68.24805
2022-11-14T23:49:33.926Z,68.22559
2022-11-14T23:51:34.102Z,67.94531
2022-11-14T23:53:34.649Z,68.2793
2022-11-14T23:55:34.095Z,68.19531
2022-11-14T23:57:33.986Z,68.38184
2022-11-14T23:59:33.872Z,68.11621
